Time;durP1;ratioP1;P1;durP2;ratioP2;P2;SDS_P1;SDS_P2;PMS_P1;PMS_P2;Temp;Humidity;BMP_temperature;BMP_pressure;BME280_temperature;BME280_humidity;BME280_pressure;Samples;Min_cycle;Max_cycle;Signal;HPM_P1;HPM_P2
2023/03/06 00:00:09;;;;;;;2.13;1.33;;;;;;;;;;4970253;28;20111;-60
2023/03/06 00:02:35;;;;;;;2.28;1.33;;;;;;;;;;4967615;28;20046;-61
2023/03/06 00:05:02;;;;;;;6.00;1.42;;;;;;;;;;4967737;28;20091;-61
2023/03/06 00:07:29;;;;;;;4.53;1.35;;;;;;;;;;4967649;28;20023;-61
2023/03/06 00:09:55;;;;;;;3.40;1.42;;;;;;;;;;4969330;28;20023;-60
2023/03/06 00:12:22;;;;;;;1.85;1.20;;;;;;;;;;4972405;28;20027;-61
2023/03/06 00:14:49;;;;;;;4.47;2.22;;;;;;;;;;4973015;28;20042;-60
2023/03/06 00:17:15;;;;;;;3.22;1.63;;;;;;;;;;4973075;28;20490;-61
2023/03/06 00:19:42;;;;;;;3.67;1.73;;;;;;;;;;4972731;28;20030;-64
2023/03/06 00:22:12;;;;;;;3.67;1.67;;;;;;;;;;4970848;28;20080;-63
2023/03/06 00:24:39;;;;;;;2.00;1.10;;;;;;;;;;4967334;28;20425;-63
2023/03/06 00:27:05;;;;;;;3.53;1.98;;;;;;;;;;4970102;28;20069;-63
2023/03/06 00:29:32;;;;;;;4.88;1.92;;;;;;;;;;4970824;28;20034;-62
2023/03/06 00:31:59;;;;;;;8.10;1.92;;;;;;;;;;4972230;28;20031;-62
2023/03/06 00:34:25;;;;;;;4.00;1.95;;;;;;;;;;4976859;28;20039;-62
2023/03/06 00:36:52;;;;;;;2.60;1.52;;;;;;;;;;4976987;28;20030;-63
2023/03/06 00:39:19;;;;;;;2.42;1.75;;;;;;;;;;4976358;28;20053;-63
2023/03/06 00:41:46;;;;;;;2.80;1.55;;;;;;;;;;4976838;28;20482;-62
2023/03/06 00:44:13;;;;;;;15.10;1.60;;;;;;;;;;4975555;28;20501;-63
2023/03/06 00:46:39;;;;;;;2.83;1.60;;;;;;;;;;4971138;28;20354;-62
2023/03/06 00:49:06;;;;;;;6.13;2.47;;;;;;;;;;4970128;28;20442;-63
2023/03/06 00:51:33;;;;;;;6.07;2.45;;;;;;;;;;4951762;28;20110;-63
2023/03/06 00:53:59;;;;;;;3.47;1.95;;;;;;;;;;4951561;28;20144;-63
2023/03/06 00:56:26;;;;;;;3.53;1.85;;;;;;;;;;4957016;28;20038;-63
2023/03/06 00:58:53;;;;;;;2.58;1.50;;;;;;;;;;4960323;28;20030;-63
2023/03/06 01:01:19;;;;;;;6.95;1.83;;;;;;;;;;4976334;28;20486;-63
2023/03/06 01:03:46;;;;;;;8.65;2.25;;;;;;;;;;4976274;28;20101;-63
2023/03/06 01:06:13;;;;;;;2.65;1.80;;;;;;;;;;4976224;28;20486;-62
2023/03/06 01:08:40;;;;;;;4.10;1.63;;;;;;;;;;4970182;28;20110;-63
2023/03/06 01:11:06;;;;;;;2.80;1.60;;;;;;;;;;4970958;28;20030;-62
2023/03/06 01:13:33;;;;;;;3.50;2.08;;;;;;;;;;4970797;28;20058;-62
2023/03/06 01:16:10;;;;;;;7.10;1.85;;;;;;;;;;4970755;28;20026;-63
2023/03/06 01:18:37;;;;;;;5.82;1.73;;;;;;;;;;4975383;28;20027;-63
2023/03/06 01:21:04;;;;;;;5.18;2.38;;;;;;;;;;4976035;28;20035;-63
2023/03/06 01:23:30;;;;;;;5.50;2.13;;;;;;;;;;4975850;28;20027;-63
2023/03/06 01:25:57;;;;;;;1.60;1.20;;;;;;;;;;4975951;28;20110;-63
2023/03/06 01:28:24;;;;;;;10.40;2.17;;;;;;;;;;4975883;28;20045;-62
2023/03/06 01:30:51;;;;;;;2.87;1.77;;;;;;;;;;4970606;28;20094;-62
2023/03/06 01:33:18;;;;;;;3.07;1.50;;;;;;;;;;4970618;28;20027;-63
2023/03/06 01:35:44;;;;;;;3.90;1.93;;;;;;;;;;4965652;28;20110;-62
2023/03/06 01:38:11;;;;;;;7.00;2.67;;;;;;;;;;4962211;28;20098;-62
2023/03/06 01:40:38;;;;;;;3.70;1.93;;;;;;;;;;4969864;28;20031;-63
2023/03/06 01:43:22;;;;;;;15.37;1.47;;;;;;;;;;4960957;28;20087;-62
2023/03/06 01:45:52;;;;;;;12.13;1.77;;;;;;;;;;4966815;28;20027;-62
2023/03/06 01:48:20;;;;;;;3.63;1.37;;;;;;;;;;4971762;28;20029;-62
2023/03/06 01:50:47;;;;;;;2.97;1.97;;;;;;;;;;4974073;28;20035;-62
2023/03/06 01:53:15;;;;;;;3.67;1.63;;;;;;;;;;4970540;28;20105;-62
2023/03/06 01:55:41;;;;;;;2.03;1.30;;;;;;;;;;4969820;28;20039;-63
2023/03/06 01:58:10;;;;;;;7.43;2.03;;;;;;;;;;4969113;28;20046;-62
2023/03/06 02:00:36;;;;;;;5.20;1.67;;;;;;;;;;4964954;28;20098;-62
2023/03/06 02:03:13;;;;;;;2.53;1.57;;;;;;;;;;4973360;28;20038;-62
2023/03/06 02:05:41;;;;;;;4.07;1.90;;;;;;;;;;4967707;28;20027;-62
2023/03/06 02:08:08;;;;;;;3.50;1.30;;;;;;;;;;4972397;28;20038;-62
2023/03/06 02:10:35;;;;;;;4.57;1.70;;;;;;;;;;4972550;28;20029;-63
2023/03/06 02:13:01;;;;;;;3.63;1.87;;;;;;;;;;4973878;28;20027;-62
2023/03/06 02:15:29;;;;;;;9.47;2.27;;;;;;;;;;4966005;28;20102;-64
2023/03/06 02:17:56;;;;;;;5.50;2.20;;;;;;;;;;4969430;28;20034;-62
2023/03/06 02:20:48;;;;;;;2.83;1.40;;;;;;;;;;4968265;28;20093;-63
2023/03/06 02:23:18;;;;;;;7.83;2.47;;;;;;;;;;4958773;28;20039;-62
2023/03/06 02:25:47;;;;;;;3.13;1.63;;;;;;;;;;4974211;28;20031;-62
2023/03/06 02:28:17;;;;;;;6.47;1.77;;;;;;;;;;4974306;28;20058;-62
2023/03/06 02:30:45;;;;;;;5.13;1.93;;;;;;;;;;4968780;28;20027;-62
2023/03/06 02:33:13;;;;;;;2.27;1.47;;;;;;;;;;4970889;28;20026;-62
2023/03/06 02:35:40;;;;;;;4.03;1.33;;;;;;;;;;4973851;28;20038;-62
2023/03/06 02:38:11;;;;;;;8.07;2.03;;;;;;;;;;4965983;28;20030;-63
2023/03/06 02:40:38;;;;;;;3.30;2.20;;;;;;;;;;4969251;28;20031;-62
2023/03/06 02:43:05;;;;;;;6.03;2.13;;;;;;;;;;4968498;28;20085;-63
2023/03/06 02:45:34;;;;;;;1.70;1.03;;;;;;;;;;4968972;28;20030;-62
2023/03/06 02:48:01;;;;;;;2.73;1.07;;;;;;;;;;4973806;28;20122;-62
2023/03/06 02:50:28;;;;;;;4.23;0.93;;;;;;;;;;4968438;28;20038;-62
2023/03/06 02:52:55;;;;;;;0.63;0.50;;;;;;;;;;4964657;28;20015;-63
2023/03/06 02:55:22;;;;;;;2.67;1.03;;;;;;;;;;4964930;28;20038;-62
2023/03/06 02:57:49;;;;;;;1.53;1.10;;;;;;;;;;4974062;28;20482;-62
2023/03/06 03:00:16;;;;;;;4.10;1.40;;;;;;;;;;4969534;28;20046;-62
2023/03/06 03:02:43;;;;;;;3.10;1.73;;;;;;;;;;4967108;28;20374;-62
2023/03/06 03:05:10;;;;;;;1.37;1.00;;;;;;;;;;4970319;28;20034;-63
2023/03/06 03:07:37;;;;;;;6.20;1.40;;;;;;;;;;4960567;28;20110;-62
2023/03/06 03:10:04;;;;;;;3.30;1.40;;;;;;;;;;4971978;28;20026;-61
2023/03/06 03:12:32;;;;;;;9.57;1.17;;;;;;;;;;4972031;28;20054;-62
2023/03/06 03:14:58;;;;;;;1.13;0.63;;;;;;;;;;4964333;28;20520;-61
2023/03/06 03:17:25;;;;;;;2.37;1.30;;;;;;;;;;4974224;28;20142;-61
2023/03/06 03:19:52;;;;;;;1.13;0.70;;;;;;;;;;4973779;28;20106;-62
2023/03/06 03:22:19;;;;;;;1.07;0.90;;;;;;;;;;4969646;28;20031;-62
2023/03/06 03:24:46;;;;;;;3.07;1.63;;;;;;;;;;4968469;28;20026;-61
2023/03/06 03:27:13;;;;;;;2.33;1.33;;;;;;;;;;4968840;28;20023;-62
2023/03/06 03:29:40;;;;;;;2.47;1.40;;;;;;;;;;4968371;28;20026;-61
2023/03/06 03:32:07;;;;;;;1.67;0.93;;;;;;;;;;4971097;28;20027;-62
2023/03/06 03:34:34;;;;;;;2.17;1.30;;;;;;;;;;4973591;28;20043;-62
2023/03/06 03:37:01;;;;;;;3.47;1.40;;;;;;;;;;4973755;28;20034;-61
2023/03/06 03:39:27;;;;;;;4.53;1.60;;;;;;;;;;4973354;28;20037;-61
2023/03/06 03:41:54;;;;;;;4.60;1.67;;;;;;;;;;4973363;28;20038;-62
2023/03/06 03:44:21;;;;;;;1.87;1.23;;;;;;;;;;4970666;28;20553;-61
2023/03/06 03:46:48;;;;;;;1.73;1.27;;;;;;;;;;4968482;28;20030;-61
2023/03/06 03:49:17;;;;;;;6.27;1.70;;;;;;;;;;4968422;28;20038;-61
2023/03/06 03:51:44;;;;;;;3.57;1.67;;;;;;;;;;4968076;28;20035;-61
2023/03/06 03:54:11;;;;;;;2.43;1.20;;;;;;;;;;4969299;28;20097;-61
2023/03/06 03:56:39;;;;;;;3.43;1.43;;;;;;;;;;4973401;28;20026;-61
2023/03/06 03:59:06;;;;;;;5.60;1.70;;;;;;;;;;4972549;28;20062;-61
2023/03/06 04:01:33;;;;;;;3.20;1.70;;;;;;;;;;4954142;28;20027;-61
2023/03/06 04:04:00;;;;;;;11.60;2.10;;;;;;;;;;4968048;28;20035;-61
2023/03/06 04:06:27;;;;;;;4.53;2.20;;;;;;;;;;4970478;28;20487;-61
2023/03/06 04:08:53;;;;;;;3.80;1.53;;;;;;;;;;4967269;28;20050;-62
2023/03/06 04:11:20;;;;;;;4.93;1.80;;;;;;;;;;4963376;28;20027;-62
2023/03/06 04:13:47;;;;;;;2.27;1.10;;;;;;;;;;4966992;28;20085;-61
2023/03/06 04:16:14;;;;;;;3.63;2.20;;;;;;;;;;4964166;28;20073;-61
2023/03/06 04:18:40;;;;;;;5.50;1.93;;;;;;;;;;4969661;28;20398;-61
2023/03/06 04:21:07;;;;;;;3.57;1.97;;;;;;;;;;4963585;28;20391;-61
2023/03/06 04:23:34;;;;;;;2.53;1.60;;;;;;;;;;4958549;28;20016;-62
2023/03/06 04:26:00;;;;;;;8.83;2.13;;;;;;;;;;4965697;28;20020;-61
2023/03/06 04:28:27;;;;;;;3.57;1.73;;;;;;;;;;4953089;28;20035;-62
2023/03/06 04:30:54;;;;;;;3.33;2.07;;;;;;;;;;4967049;28;20118;-61
2023/03/06 04:33:20;;;;;;;2.67;1.53;;;;;;;;;;4966662;28;20018;-61
2023/03/06 04:35:47;;;;;;;1.60;1.23;;;;;;;;;;4950334;28;20437;-61
2023/03/06 04:38:14;;;;;;;3.63;1.20;;;;;;;;;;4957042;28;20027;-61
2023/03/06 04:40:41;;;;;;;5.40;1.60;;;;;;;;;;4973039;28;20026;-61
2023/03/06 04:43:08;;;;;;;13.30;1.77;;;;;;;;;;4972406;28;20487;-61
2023/03/06 04:45:35;;;;;;;5.00;1.37;;;;;;;;;;4962722;28;20051;-61
2023/03/06 04:48:03;;;;;;;5.23;1.53;;;;;;;;;;4953596;28;20027;-61
2023/03/06 04:50:31;;;;;;;2.93;1.57;;;;;;;;;;4953468;28;20027;-61
2023/03/06 04:53:03;;;;;;;9.50;2.00;;;;;;;;;;4956600;28;20038;-61
2023/03/06 04:55:30;;;;;;;3.77;1.63;;;;;;;;;;4957302;28;20496;-61
2023/03/06 04:57:57;;;;;;;1.90;1.17;;;;;;;;;;4950973;28;20030;-62
2023/03/06 05:00:29;;;;;;;1.20;0.97;;;;;;;;;;4950683;28;20117;-61
2023/03/06 05:02:56;;;;;;;2.57;1.57;;;;;;;;;;4965332;28;20027;-61
2023/03/06 05:05:23;;;;;;;0.83;0.80;;;;;;;;;;4953963;28;20019;-61
2023/03/06 05:07:50;;;;;;;2.57;1.57;;;;;;;;;;4968943;28;20042;-61
2023/03/06 05:10:17;;;;;;;2.47;1.70;;;;;;;;;;4968735;28;20031;-61
2023/03/06 05:12:44;;;;;;;2.83;1.50;;;;;;;;;;4972934;28;20026;-61
2023/03/06 05:15:12;;;;;;;5.87;2.30;;;;;;;;;;4970077;28;20105;-61
2023/03/06 05:17:39;;;;;;;6.43;1.53;;;;;;;;;;4968281;28;20038;-61
2023/03/06 05:20:08;;;;;;;14.47;1.83;;;;;;;;;;4967099;28;20660;-61
2023/03/06 05:22:35;;;;;;;3.20;1.70;;;;;;;;;;4969080;28;20500;-61
2023/03/06 05:25:03;;;;;;;2.87;1.57;;;;;;;;;;4971049;28;20467;-61
2023/03/06 05:27:30;;;;;;;2.73;1.83;;;;;;;;;;4974382;28;20042;-62
2023/03/06 05:29:57;;;;;;;10.20;1.33;;;;;;;;;;4956212;28;20027;-61
2023/03/06 05:32:23;;;;;;;2.17;1.40;;;;;;;;;;4971654;28;20089;-61
2023/03/06 05:34:50;;;;;;;5.37;2.23;;;;;;;;;;4973697;28;20035;-61
2023/03/06 05:37:17;;;;;;;1.77;1.23;;;;;;;;;;4960859;28;20118;-61
2023/03/06 05:39:43;;;;;;;1.87;1.37;;;;;;;;;;4966565;28;20030;-62
2023/03/06 05:42:10;;;;;;;5.53;1.67;;;;;;;;;;4966019;28;20038;-61
2023/03/06 05:44:37;;;;;;;2.60;1.30;;;;;;;;;;4963887;28;20031;-62
2023/03/06 05:47:04;;;;;;;3.17;1.33;;;;;;;;;;4973297;28;20533;-62
2023/03/06 05:49:34;;;;;;;1.93;1.37;;;;;;;;;;4970425;28;20028;-62
2023/03/06 05:52:02;;;;;;;4.33;1.77;;;;;;;;;;4974888;28;20035;-61
2023/03/06 05:54:30;;;;;;;1.53;0.93;;;;;;;;;;4973798;28;20097;-62
2023/03/06 05:56:57;;;;;;;25.03;1.90;;;;;;;;;;4974581;28;20430;-62
2023/03/06 05:59:27;;;;;;;8.33;1.30;;;;;;;;;;4970917;28;20102;-61
2023/03/06 06:01:54;;;;;;;0.93;0.70;;;;;;;;;;4969925;28;20027;-61
2023/03/06 06:04:22;;;;;;;1.53;1.30;;;;;;;;;;4969509;28;20098;-61
2023/03/06 06:06:53;;;;;;;2.83;1.40;;;;;;;;;;4969684;28;20034;-61
2023/03/06 06:09:23;;;;;;;3.07;1.50;;;;;;;;;;4972966;28;20026;-61
2023/03/06 06:11:53;;;;;;;1.50;1.00;;;;;;;;;;4975117;28;20023;-61
2023/03/06 06:14:20;;;;;;;3.00;1.30;;;;;;;;;;4974979;28;20027;-61
2023/03/06 06:16:47;;;;;;;1.07;0.80;;;;;;;;;;4975268;28;20106;-61
2023/03/06 06:19:17;;;;;;;1.73;0.77;;;;;;;;;;4974288;28;20085;-61
2023/03/06 06:21:48;;;;;;;1.90;0.90;;;;;;;;;;4971230;28;20093;-61
2023/03/06 06:24:15;;;;;;;2.53;1.27;;;;;;;;;;4969027;28;20022;-61
2023/03/06 06:26:42;;;;;;;2.63;1.10;;;;;;;;;;4969633;28;20031;-61
2023/03/06 06:29:09;;;;;;;2.17;1.40;;;;;;;;;;4969545;28;20030;-61
2023/03/06 06:31:36;;;;;;;1.40;1.07;;;;;;;;;;4971848;28;20034;-61
2023/03/06 06:34:03;;;;;;;2.30;0.73;;;;;;;;;;4974354;28;20246;-61
2023/03/06 06:36:30;;;;;;;1.70;1.20;;;;;;;;;;4974748;28;20034;-61
2023/03/06 06:38:57;;;;;;;1.87;1.23;;;;;;;;;;4974368;28;20031;-61
2023/03/06 06:41:24;;;;;;;6.27;1.83;;;;;;;;;;4974615;28;20031;-62
2023/03/06 06:43:50;;;;;;;5.57;1.63;;;;;;;;;;4971757;28;20023;-61
2023/03/06 06:46:17;;;;;;;3.73;1.23;;;;;;;;;;4969390;28;20062;-61
2023/03/06 06:48:44;;;;;;;2.67;1.30;;;;;;;;;;4969364;28;20039;-61
2023/03/06 06:51:11;;;;;;;1.63;1.07;;;;;;;;;;4968786;28;20026;-61
2023/03/06 06:53:37;;;;;;;12.97;3.03;;;;;;;;;;4969867;28;20019;-61
2023/03/06 06:56:04;;;;;;;2.43;1.40;;;;;;;;;;4974413;28;20045;-61
2023/03/06 06:58:31;;;;;;;11.83;2.07;;;;;;;;;;4974437;28;20436;-61
2023/03/06 07:00:57;;;;;;;5.80;1.27;;;;;;;;;;4974373;28;20026;-61
2023/03/06 07:03:24;;;;;;;1.97;1.30;;;;;;;;;;4973920;28;20181;-61
2023/03/06 07:05:55;;;;;;;1.03;0.83;;;;;;;;;;4972859;28;20057;-61
2023/03/06 07:08:21;;;;;;;1.60;0.93;;;;;;;;;;4968505;28;20062;-61
2023/03/06 07:10:48;;;;;;;2.37;1.40;;;;;;;;;;4968813;28;20030;-61
2023/03/06 07:13:15;;;;;;;2.30;1.23;;;;;;;;;;4968770;28;20511;-62
2023/03/06 07:15:42;;;;;;;6.93;1.73;;;;;;;;;;4968632;28;20086;-61
2023/03/06 07:18:08;;;;;;;2.40;0.87;;;;;;;;;;4973903;28;20030;-61
2023/03/06 07:20:35;;;;;;;3.67;1.50;;;;;;;;;;4973948;28;20097;-61
2023/03/06 07:23:02;;;;;;;4.00;1.60;;;;;;;;;;4973757;28;20550;-61
2023/03/06 07:25:28;;;;;;;2.60;1.37;;;;;;;;;;4973616;28;20019;-61
2023/03/06 07:27:55;;;;;;;1.03;0.87;;;;;;;;;;4973573;28;20082;-61
2023/03/06 07:30:23;;;;;;;1.70;1.27;;;;;;;;;;4968319;28;20061;-61
2023/03/06 07:32:52;;;;;;;3.83;2.13;;;;;;;;;;4968545;28;20561;-61
2023/03/06 07:35:19;;;;;;;2.60;1.30;;;;;;;;;;4968286;28;20104;-61
2023/03/06 07:37:46;;;;;;;4.90;1.40;;;;;;;;;;4968052;28;20046;-61
2023/03/06 07:40:12;;;;;;;2.33;1.47;;;;;;;;;;4973017;28;20030;-61
2023/03/06 07:42:39;;;;;;;0.90;0.70;;;;;;;;;;4973151;28;20422;-61
2023/03/06 07:45:07;;;;;;;2.00;1.23;;;;;;;;;;4973659;28;20035;-61
2023/03/06 07:47:34;;;;;;;0.83;0.67;;;;;;;;;;4973448;28;20039;-61
2023/03/06 07:50:03;;;;;;;7.63;1.60;;;;;;;;;;4973722;28;20085;-61
2023/03/06 07:52:29;;;;;;;1.40;0.97;;;;;;;;;;4967883;28;20394;-61
2023/03/06 07:54:56;;;;;;;2.33;1.20;;;;;;;;;;4967740;28;20042;-61
2023/03/06 07:57:23;;;;;;;1.87;1.30;;;;;;;;;;4967939;28;20031;-61
2023/03/06 07:59:49;;;;;;;1.93;1.30;;;;;;;;;;4967545;28;20026;-61
2023/03/06 08:02:16;;;;;;;1.83;1.23;;;;;;;;;;4972364;28;20031;-61
2023/03/06 08:04:43;;;;;;;1.97;1.53;;;;;;;;;;4973217;28;20039;-61
2023/03/06 08:07:09;;;;;;;1.07;0.90;;;;;;;;;;4973443;28;20390;-60
2023/03/06 08:09:36;;;;;;;1.57;1.00;;;;;;;;;;4973556;28;20027;-61
2023/03/06 08:12:03;;;;;;;19.20;1.80;;;;;;;;;;4973247;28;20057;-61
2023/03/06 08:14:30;;;;;;;3.00;1.50;;;;;;;;;;4968702;28;20046;-61
2023/03/06 08:16:56;;;;;;;1.93;1.33;;;;;;;;;;4967473;28;20041;-61
2023/03/06 08:19:23;;;;;;;3.80;1.80;;;;;;;;;;4967863;28;20034;-61
2023/03/06 08:21:50;;;;;;;4.60;2.43;;;;;;;;;;4967689;28;20477;-61
2023/03/06 08:24:17;;;;;;;2.90;1.47;;;;;;;;;;4971351;28;20398;-61
2023/03/06 08:26:44;;;;;;;2.40;1.37;;;;;;;;;;4973005;28;20540;-61
2023/03/06 08:29:11;;;;;;;2.43;1.27;;;;;;;;;;4972907;28;20042;-61
2023/03/06 08:31:38;;;;;;;1.80;1.33;;;;;;;;;;4973165;28;20031;-61
2023/03/06 08:34:06;;;;;;;2.50;1.77;;;;;;;;;;4973018;28;20087;-61
2023/03/06 08:36:33;;;;;;;3.40;1.90;;;;;;;;;;4969207;28;20023;-61
2023/03/06 08:39:00;;;;;;;1.23;0.97;;;;;;;;;;4967708;28;20049;-61
2023/03/06 08:41:27;;;;;;;5.73;2.23;;;;;;;;;;4967447;28;20031;-61
2023/03/06 08:43:54;;;;;;;1.37;1.10;;;;;;;;;;4967734;28;20018;-61
2023/03/06 08:46:22;;;;;;;3.67;1.77;;;;;;;;;;4970304;28;20022;-62
2023/03/06 08:48:48;;;;;;;2.57;1.87;;;;;;;;;;4976182;28;20019;-62
2023/03/06 08:51:16;;;;;;;2.23;1.60;;;;;;;;;;4976634;28;20470;-61
2023/03/06 08:53:42;;;;;;;3.60;1.90;;;;;;;;;;4975770;28;20023;-61
2023/03/06 08:56:16;;;;;;;3.50;1.63;;;;;;;;;;4976419;28;20054;-61
2023/03/06 08:58:43;;;;;;;2.20;1.30;;;;;;;;;;4973425;28;20030;-61
2023/03/06 09:01:21;;;;;;;1.97;1.47;;;;;;;;;;4971223;28;20110;-61
2023/03/06 09:03:48;;;;;;;1.07;0.93;;;;;;;;;;4970952;28;20356;-61
2023/03/06 09:06:15;;;;;;;4.47;1.37;;;;;;;;;;4970539;28;20027;-61
2023/03/06 09:08:43;;;;;;;1.93;1.30;;;;;;;;;;4973744;28;20085;-61
2023/03/06 09:11:10;;;;;;;1.30;1.10;;;;;;;;;;4976182;28;20030;-62
2023/03/06 09:13:37;;;;;;;2.73;1.70;;;;;;;;;;4976108;28;20022;-61
2023/03/06 09:16:04;;;;;;;2.50;1.60;;;;;;;;;;4976251;28;20030;-61
2023/03/06 09:18:31;;;;;;;2.87;1.37;;;;;;;;;;4976214;28;20435;-61
2023/03/06 09:20:57;;;;;;;2.67;1.83;;;;;;;;;;4972810;28;20031;-61
2023/03/06 09:23:24;;;;;;;2.03;1.60;;;;;;;;;;4970656;28;20031;-61
2023/03/06 09:25:54;;;;;;;2.30;1.47;;;;;;;;;;4970565;28;20502;-61
2023/03/06 09:28:21;;;;;;;18.13;2.23;;;;;;;;;;4970554;28;20031;-61
2023/03/06 09:30:48;;;;;;;1.30;0.97;;;;;;;;;;4972804;28;20077;-61
2023/03/06 09:33:15;;;;;;;3.33;1.50;;;;;;;;;;4975843;28;20034;-61
2023/03/06 09:35:46;;;;;;;3.83;1.40;;;;;;;;;;4975425;28;20042;-61
2023/03/06 09:38:12;;;;;;;1.67;0.93;;;;;;;;;;4975386;28;20077;-61
2023/03/06 09:40:48;;;;;;;1.43;1.00;;;;;;;;;;4975749;28;20038;-61
2023/03/06 09:43:20;;;;;;;1.93;1.30;;;;;;;;;;4972442;28;20512;-61
2023/03/06 09:45:47;;;;;;;3.43;2.17;;;;;;;;;;4970302;28;20093;-62
2023/03/06 09:48:16;;;;;;;3.20;2.27;;;;;;;;;;4970227;28;20027;-61
2023/03/06 09:50:51;;;;;;;4.37;2.50;;;;;;;;;;4969667;28;20950;-61
2023/03/06 09:53:37;;;;;;;2.78;2.03;;;;;;;;;;4972609;28;20453;-61
2023/03/06 09:56:03;;;;;;;;;;;;;;;;;;4975706;28;20043;-61
2023/03/06 09:58:30;;;;;;;3.67;1.20;;;;;;;;;;4974550;28;19910;-61
2023/03/06 10:01:00;;;;;;;2.53;1.47;;;;;;;;;;4975245;28;20476;-61
2023/03/06 10:03:38;;;;;;;1.63;1.33;;;;;;;;;;4975356;28;20105;-61
2023/03/06 10:06:23;;;;;;;2.17;1.57;;;;;;;;;;4970705;28;20073;-61
2023/03/06 10:09:11;;;;;;;3.58;1.83;;;;;;;;;;4969466;28;20038;-61
2023/03/06 10:11:37;;;;;;;2.47;1.83;;;;;;;;;;4969890;28;20066;-61
2023/03/06 10:14:11;;;;;;;3.43;1.83;;;;;;;;;;4969630;28;20062;-61
2023/03/06 10:16:38;;;;;;;2.73;1.67;;;;;;;;;;4974717;28;20030;-61
2023/03/06 10:19:07;;;;;;;7.30;2.13;;;;;;;;;;4975149;28;20285;-61
2023/03/06 10:21:47;;;;;;;2.73;1.80;;;;;;;;;;4974804;28;20371;-61
2023/03/06 10:24:21;;;;;;;3.20;2.13;;;;;;;;;;4975072;28;20363;-61
2023/03/06 10:27:00;;;;;;;2.33;1.90;;;;;;;;;;4974315;28;20277;-61
2023/03/06 10:29:33;;;;;;;1.50;1.40;;;;;;;;;;4950286;28;20170;-61
2023/03/06 10:32:10;;;;;;;4.30;2.50;;;;;;;;;;4950095;28;20060;-61
2023/03/06 10:34:38;;;;;;;2.03;1.60;;;;;;;;;;4950103;28;20300;-61
2023/03/06 10:37:19;;;;;;;5.93;2.77;;;;;;;;;;4950742;28;20291;-61
2023/03/06 10:39:46;;;;;;;3.83;1.70;;;;;;;;;;4964367;28;20031;-60
2023/03/06 10:42:12;;;;;;;4.10;2.03;;;;;;;;;;4974724;28;20293;-61
2023/03/06 10:44:39;;;;;;;2.23;1.53;;;;;;;;;;4974584;28;20035;-61
2023/03/06 10:47:26;;;;;;;3.97;2.17;;;;;;;;;;4974412;28;20359;-61
2023/03/06 10:50:00;;;;;;;2.33;1.70;;;;;;;;;;4972106;28;21028;-61
2023/03/06 10:52:31;;;;;;;1.70;1.15;;;;;;;;;;4968580;28;20871;-61
2023/03/06 10:55:22;;;;;;;2.83;1.43;;;;;;;;;;4968791;28;20136;-61
2023/03/06 10:57:49;;;;;;;3.30;2.03;;;;;;;;;;4968903;28;20261;-61
2023/03/06 11:00:35;;;;;;;5.70;3.00;;;;;;;;;;4971696;28;20256;-61
2023/03/06 11:03:05;;;;;;;2.97;2.30;;;;;;;;;;4974561;28;20264;-61
2023/03/06 11:05:31;;;;;;;4.20;2.50;;;;;;;;;;4973778;28;20277;-61
2023/03/06 11:07:59;;;;;;;5.13;2.70;;;;;;;;;;4974183;28;20328;-60
2023/03/06 11:10:27;;;;;;;2.30;1.97;;;;;;;;;;4973753;28;20268;-61
2023/03/06 11:12:56;;;;;;;4.87;2.63;;;;;;;;;;4969960;28;20604;-59
2023/03/06 11:15:24;;;;;;;9.57;2.70;;;;;;;;;;4968240;28;20383;-59
2023/03/06 11:17:52;;;;;;;2.30;1.70;;;;;;;;;;4968394;28;20264;-58
2023/03/06 11:20:25;;;;;;;4.73;2.70;;;;;;;;;;4968456;28;20756;-59
2023/03/06 11:22:55;;;;;;;2.30;1.67;;;;;;;;;;4971755;28;20331;-58
2023/03/06 11:25:22;;;;;;;4.97;2.77;;;;;;;;;;4973706;28;20265;-58
2023/03/06 11:27:55;;;;;;;6.07;2.00;;;;;;;;;;4973395;28;20279;-59
2023/03/06 11:30:28;;;;;;;3.07;1.43;;;;;;;;;;4973872;28;20256;-58
2023/03/06 11:33:03;;;;;;;3.23;2.10;;;;;;;;;;4973776;28;20271;-58
2023/03/06 11:35:33;;;;;;;;;;;;;;;;;;4969321;28;20641;-59
2023/03/06 11:38:26;;;;;;;12.87;2.83;;;;;;;;;;4967706;28;20330;-59
2023/03/06 11:40:54;;;;;;;5.10;3.37;;;;;;;;;;4926681;28;20614;-58
2023/03/06 11:43:25;;;;;;;2.73;1.90;;;;;;;;;;4948858;28;20666;-58
2023/03/06 11:45:55;;;;;;;2.60;1.97;;;;;;;;;;4954250;29;20268;-61
2023/03/06 11:48:28;;;;;;;3.00;1.53;;;;;;;;;;4954983;28;20296;-60
2023/03/06 11:51:18;;;;;;;2.67;1.90;;;;;;;;;;4973641;28;20288;-60
2023/03/06 11:53:44;;;;;;;10.17;2.17;;;;;;;;;;4965703;28;20268;-60
2023/03/06 11:56:23;;;;;;;4.23;2.40;;;;;;;;;;4972363;28;20607;-60
2023/03/06 11:58:50;;;;;;;5.73;1.93;;;;;;;;;;4967903;28;20755;-61
2023/03/06 12:01:17;;;;;;;1.70;1.47;;;;;;;;;;4967758;28;20644;-60
2023/03/06 12:03:58;;;;;;;4.37;2.63;;;;;;;;;;4967945;28;20343;-60
2023/03/06 12:06:35;;;;;;;2.73;2.20;;;;;;;;;;4969272;28;20305;-60
2023/03/06 12:09:04;;;;;;;2.70;1.97;;;;;;;;;;4973401;28;20287;-60
2023/03/06 12:11:41;;;;;;;5.07;2.80;;;;;;;;;;4973432;28;20288;-60
2023/03/06 12:14:23;;;;;;;3.43;2.47;;;;;;;;;;4972684;28;20291;-60
2023/03/06 12:16:49;;;;;;;1.40;1.30;;;;;;;;;;4973114;28;20605;-60
2023/03/06 12:19:16;;;;;;;6.53;2.23;;;;;;;;;;4970617;28;20256;-60
2023/03/06 12:21:55;;;;;;;22.63;3.00;;;;;;;;;;4968031;28;20368;-61
2023/03/06 12:24:31;;;;;;;16.40;2.83;;;;;;;;;;4971726;28;20333;-60
2023/03/06 12:27:00;;;;;;;3.77;2.30;;;;;;;;;;4971460;28;20260;-60
2023/03/06 12:29:56;;;;;;;2.37;1.90;;;;;;;;;;4974048;28;20252;-60
2023/03/06 12:32:23;;;;;;;3.13;1.80;;;;;;;;;;4925079;28;20407;-60
2023/03/06 12:34:55;;;;;;;4.20;2.03;;;;;;;;;;4977095;28;20031;-60
2023/03/06 12:37:28;;;;;;;4.53;2.43;;;;;;;;;;4976307;28;20272;-60
2023/03/06 12:40:01;;;;;;;4.00;1.77;;;;;;;;;;4976746;28;20379;-61
2023/03/06 12:42:34;;;;;;;6.40;2.43;;;;;;;;;;4971913;28;20612;-60
2023/03/06 12:45:10;;;;;;;3.07;2.30;;;;;;;;;;4971542;28;20261;-60
2023/03/06 12:47:44;;;;;;;4.97;2.50;;;;;;;;;;4970839;28;20353;-60
2023/03/06 12:50:18;;;;;;;2.80;1.77;;;;;;;;;;4971243;28;20687;-60
2023/03/06 12:52:46;;;;;;;4.73;2.17;;;;;;;;;;4976361;28;20823;-60
2023/03/06 12:55:15;;;;;;;3.83;2.33;;;;;;;;;;4976372;28;20625;-60
2023/03/06 12:57:42;;;;;;;8.47;2.37;;;;;;;;;;4976436;28;20268;-60
2023/03/06 13:00:28;;;;;;;4.67;2.43;;;;;;;;;;4976232;28;20249;-60
2023/03/06 13:03:04;;;;;;;8.27;2.57;;;;;;;;;;4974128;28;20268;-58
2023/03/06 13:05:34;;;;;;;6.37;2.53;;;;;;;;;;4970212;28;20276;-58
2023/03/06 13:08:20;;;;;;;4.60;2.97;;;;;;;;;;4971078;28;20360;-58
2023/03/06 13:11:02;;;;;;;37.07;4.60;;;;;;;;;;4963910;28;20269;-58
2023/03/06 13:13:32;;;;;;;6.40;4.30;;;;;;;;;;4972047;28;20261;-61
2023/03/06 13:16:05;;;;;;;12.00;3.53;;;;;;;;;;4975884;28;20304;-61
2023/03/06 13:18:34;;;;;;;2.77;2.17;;;;;;;;;;4975955;28;20279;-58
2023/03/06 13:21:03;;;;;;;4.07;2.17;;;;;;;;;;4975559;28;20267;-59
2023/03/06 13:23:29;;;;;;;14.30;2.83;;;;;;;;;;4975853;28;20289;-58
2023/03/06 13:25:57;;;;;;;21.53;3.27;;;;;;;;;;4973233;28;20356;-59
2023/03/06 13:28:43;;;;;;;7.03;2.90;;;;;;;;;;4970715;28;20260;-58
2023/03/06 13:31:14;;;;;;;6.13;3.90;;;;;;;;;;4970084;28;20308;-59
2023/03/06 13:33:40;;;;;;;8.03;3.33;;;;;;;;;;4970315;28;20815;-59
2023/03/06 13:36:25;;;;;;;19.73;5.40;;;;;;;;;;4972463;28;20681;-58
2023/03/06 13:38:52;;;;;;;28.60;5.53;;;;;;;;;;4975209;28;20324;-61
2023/03/06 13:41:22;;;;;;;19.83;5.53;;;;;;;;;;4975089;28;20021;-61
2023/03/06 13:43:50;;;;;;;25.90;3.93;;;;;;;;;;4975609;28;20272;-61
2023/03/06 13:46:26;;;;;;;21.67;4.97;;;;;;;;;;4975444;28;20681;-61
2023/03/06 13:49:08;;;;;;;11.57;3.23;;;;;;;;;;4971919;28;20289;-61
2023/03/06 13:51:38;;;;;;;8.07;4.10;;;;;;;;;;4963417;28;20150;-61
2023/03/06 13:54:24;;;;;;;14.87;4.67;;;;;;;;;;4952647;28;20074;-61
2023/03/06 13:56:51;;;;;;;7.37;3.77;;;;;;;;;;4963360;28;20236;-61
2023/03/06 13:59:21;;;;;;;7.03;3.57;;;;;;;;;;4968816;28;20370;-61
2023/03/06 14:01:52;;;;;;;7.57;3.37;;;;;;;;;;4973244;28;20032;-61
2023/03/06 14:04:36;;;;;;;3.03;2.10;;;;;;;;;;4960212;28;20093;-61
2023/03/06 14:07:20;;;;;;;3.57;2.40;;;;;;;;;;4972794;28;20030;-61
2023/03/06 14:10:05;;;;;;;14.50;5.40;;;;;;;;;;4971779;28;20031;-62
2023/03/06 14:12:34;;;;;;;9.00;3.83;;;;;;;;;;4956414;28;20023;-61
2023/03/06 14:15:03;;;;;;;9.17;4.23;;;;;;;;;;4967564;28;20490;-61
2023/03/06 14:17:32;;;;;;;6.40;5.13;;;;;;;;;;4962747;28;20023;-61
2023/03/06 14:20:18;;;;;;;9.37;6.50;;;;;;;;;;4957711;28;20027;-61
2023/03/06 14:22:45;;;;;;;6.43;4.43;;;;;;;;;;4971236;28;20030;-61
2023/03/06 14:25:24;;;;;;;10.37;5.63;;;;;;;;;;4974794;28;20051;-62
2023/03/06 14:27:51;;;;;;;12.40;6.53;;;;;;;;;;4974575;28;20015;-62
2023/03/06 14:30:22;;;;;;;13.13;6.90;;;;;;;;;;4974577;28;20031;-61
2023/03/06 14:32:53;;;;;;;8.50;4.53;;;;;;;;;;4972815;28;20046;-62
2023/03/06 14:35:25;;;;;;;11.67;6.30;;;;;;;;;;4969373;28;20426;-61
2023/03/06 14:37:52;;;;;;;16.33;6.87;;;;;;;;;;4969014;28;20381;-62
2023/03/06 14:40:33;;;;;;;7.07;5.03;;;;;;;;;;4969473;28;20035;-62
2023/03/06 14:43:30;;;;;;;9.27;5.60;;;;;;;;;;4971281;28;20078;-62
2023/03/06 14:45:58;;;;;;;8.43;4.90;;;;;;;;;;4961628;28;20398;-63
2023/03/06 14:48:27;;;;;;;37.90;6.00;;;;;;;;;;4973701;28;20033;-64
2023/03/06 14:50:55;;;;;;;11.27;5.20;;;;;;;;;;4973896;28;20035;-62
2023/03/06 14:53:26;;;;;;;9.60;4.30;;;;;;;;;;4974012;28;20035;-63
2023/03/06 14:55:59;;;;;;;9.60;5.60;;;;;;;;;;4970310;28;20390;-62